sensor_id;sensor_type;location;lat;lon;timestamp;temperature;humidity
14934;DHT22;7560;51.364;12.384;2024-01-06T00:02:31;5.10;99.90
14934;DHT22;7560;51.364;12.384;2024-01-06T00:07:33;5.10;99.90
14934;DHT22;7560;51.364;12.384;2024-01-06T00:12:34;4.90;99.90
14934;DHT22;7560;51.364;12.384;2024-01-06T00:17:36;4.80;99.90
14934;DHT22;7560;51.364;12.384;2024-01-06T00:22:38;4.70;99.90
14934;DHT22;7560;51.364;12.384;2024-01-06T00:27:40;4.70;99.90
14934;DHT22;7560;51.364;12.384;2024-01-06T00:32:42;4.70;99.90
14934;DHT22;7560;51.364;12.384;2024-01-06T00:37:44;4.60;99.90
14934;DHT22;7560;51.364;12.384;2024-01-06T00:42:45;4.50;99.90
14934;DHT22;7560;51.364;12.384;2024-01-06T00:47:47;4.50;99.90
14934;DHT22;7560;51.364;12.384;2024-01-06T00:52:49;4.50;99.90
14934;DHT22;7560;51.364;12.384;2024-01-06T00:57:54;4.50;99.90
14934;DHT22;7560;51.364;12.384;2024-01-06T01:02:56;4.40;99.90
14934;DHT22;7560;51.364;12.384;2024-01-06T01:07:58;4.40;99.90
14934;DHT22;7560;51.364;12.384;2024-01-06T01:13:00;4.60;99.90
14934;DHT22;7560;51.364;12.384;2024-01-06T01:18:02;4.40;99.90
14934;DHT22;7560;51.364;12.384;2024-01-06T01:23:04;4.30;99.90
14934;DHT22;7560;51.364;12.384;2024-01-06T01:28:05;4.20;99.90
14934;DHT22;7560;51.364;12.384;2024-01-06T01:33:07;4.10;99.90
14934;DHT22;7560;51.364;12.384;2024-01-06T01:38:09;4.00;99.90
14934;DHT22;7560;51.364;12.384;2024-01-06T01:43:21;4.00;99.90
14934;DHT22;7560;51.364;12.384;2024-01-06T01:48:23;4.00;99.90
14934;DHT22;7560;51.364;12.384;2024-01-06T01:53:26;4.00;99.90
14934;DHT22;7560;51.364;12.384;2024-01-06T01:58:28;3.90;99.90
14934;DHT22;7560;51.364;12.384;2024-01-06T02:03:30;3.80;99.90
14934;DHT22;7560;51.364;12.384;2024-01-06T02:08:33;3.70;99.90
14934;DHT22;7560;51.364;12.384;2024-01-06T02:13:35;3.70;99.90
14934;DHT22;7560;51.364;12.384;2024-01-06T02:18:37;3.70;99.90
14934;DHT22;7560;51.364;12.384;2024-01-06T02:23:39;3.60;99.90
14934;DHT22;7560;51.364;12.384;2024-01-06T02:28:41;3.60;99.90
14934;DHT22;7560;51.364;12.384;2024-01-06T02:33:43;3.60;99.90
14934;DHT22;7560;51.364;12.384;2024-01-06T02:38:44;3.50;99.90
14934;DHT22;7560;51.364;12.384;2024-01-06T02:43:46;3.50;99.90
14934;DHT22;7560;51.364;12.384;2024-01-06T02:48:48;3.30;99.90
14934;DHT22;7560;51.364;12.384;2024-01-06T02:53:50;3.30;99.90
14934;DHT22;7560;51.364;12.384;2024-01-06T02:58:52;3.30;99.90
14934;DHT22;7560;51.364;12.384;2024-01-06T03:03:54;3.20;99.90
14934;DHT22;7560;51.364;12.384;2024-01-06T03:08:56;3.10;99.90
14934;DHT22;7560;51.364;12.384;2024-01-06T03:13:57;3.20;99.90
14934;DHT22;7560;51.364;12.384;2024-01-06T03:18:59;3.10;99.90
14934;DHT22;7560;51.364;12.384;2024-01-06T03:24:01;3.10;99.90
14934;DHT22;7560;51.364;12.384;2024-01-06T03:29:03;3.00;99.90
14934;DHT22;7560;51.364;12.384;2024-01-06T03:34:04;2.90;99.90
14934;DHT22;7560;51.364;12.384;2024-01-06T03:39:07;3.00;99.90
14934;DHT22;7560;51.364;12.384;2024-01-06T03:44:09;3.00;99.90
14934;DHT22;7560;51.364;12.384;2024-01-06T03:49:11;2.90;99.90
14934;DHT22;7560;51.364;12.384;2024-01-06T03:54:13;2.80;99.90
14934;DHT22;7560;51.364;12.384;2024-01-06T03:59:15;2.80;99.90
14934;DHT22;7560;51.364;12.384;2024-01-06T04:04:16;2.80;99.90
14934;DHT22;7560;51.364;12.384;2024-01-06T04:09:18;2.80;99.90
14934;DHT22;7560;51.364;12.384;2024-01-06T04:14:20;2.80;99.90
14934;DHT22;7560;51.364;12.384;2024-01-06T04:19:22;2.80;99.90
14934;DHT22;7560;51.364;12.384;2024-01-06T04:24:24;2.80;99.90
14934;DHT22;7560;51.364;12.384;2024-01-06T04:29:25;2.80;99.90
14934;DHT22;7560;51.364;12.384;2024-01-06T04:34:27;2.80;99.90
14934;DHT22;7560;51.364;12.384;2024-01-06T04:39:29;2.60;99.90
14934;DHT22;7560;51.364;12.384;2024-01-06T04:44:31;2.60;99.90
14934;DHT22;7560;51.364;12.384;2024-01-06T04:49:33;2.60;99.90
14934;DHT22;7560;51.364;12.384;2024-01-06T04:54:35;2.60;99.90
14934;DHT22;7560;51.364;12.384;2024-01-06T04:59:36;2.60;99.90
14934;DHT22;7560;51.364;12.384;2024-01-06T05:04:38;2.70;99.90
14934;DHT22;7560;51.364;12.384;2024-01-06T05:09:40;2.50;99.90
14934;DHT22;7560;51.364;12.384;2024-01-06T05:14:42;2.60;99.90
14934;DHT22;7560;51.364;12.384;2024-01-06T05:19:43;2.60;99.90
14934;DHT22;7560;51.364;12.384;2024-01-06T05:24:45;2.50;99.90
14934;DHT22;7560;51.364;12.384;2024-01-06T05:29:48;2.40;99.90
14934;DHT22;7560;51.364;12.384;2024-01-06T05:34:51;2.30;99.90
14934;DHT22;7560;51.364;12.384;2024-01-06T05:39:53;2.30;99.90
14934;DHT22;7560;51.364;12.384;2024-01-06T05:44:56;2.30;99.90
14934;DHT22;7560;51.364;12.384;2024-01-06T05:49:57;2.20;99.90
14934;DHT22;7560;51.364;12.384;2024-01-06T05:54:59;2.20;99.90
14934;DHT22;7560;51.364;12.384;2024-01-06T06:00:01;2.20;99.90
14934;DHT22;7560;51.364;12.384;2024-01-06T06:05:03;2.20;99.90
14934;DHT22;7560;51.364;12.384;2024-01-06T06:10:09;2.30;99.90
14934;DHT22;7560;51.364;12.384;2024-01-06T06:15:11;2.30;99.90
14934;DHT22;7560;51.364;12.384;2024-01-06T06:20:13;2.30;99.90
14934;DHT22;7560;51.364;12.384;2024-01-06T06:25:16;2.30;99.90
14934;DHT22;7560;51.364;12.384;2024-01-06T06:30:17;2.30;99.90
14934;DHT22;7560;51.364;12.384;2024-01-06T06:35:19;2.50;99.90
14934;DHT22;7560;51.364;12.384;2024-01-06T06:40:21;2.40;99.90
14934;DHT22;7560;51.364;12.384;2024-01-06T06:45:23;2.40;99.90
14934;DHT22;7560;51.364;12.384;2024-01-06T06:50:25;2.50;99.90
14934;DHT22;7560;51.364;12.384;2024-01-06T06:55:27;2.40;99.90
14934;DHT22;7560;51.364;12.384;2024-01-06T07:00:28;2.40;99.90
14934;DHT22;7560;51.364;12.384;2024-01-06T07:05:30;2.70;99.90
14934;DHT22;7560;51.364;12.384;2024-01-06T07:10:32;2.80;99.90
14934;DHT22;7560;51.364;12.384;2024-01-06T07:15:34;2.80;99.90
14934;DHT22;7560;51.364;12.384;2024-01-06T07:20:35;2.80;99.90
14934;DHT22;7560;51.364;12.384;2024-01-06T07:25:37;3.00;99.90
14934;DHT22;7560;51.364;12.384;2024-01-06T07:30:39;3.20;99.90
14934;DHT22;7560;51.364;12.384;2024-01-06T07:35:41;3.20;99.90
14934;DHT22;7560;51.364;12.384;2024-01-06T07:40:44;3.20;99.90
14934;DHT22;7560;51.364;12.384;2024-01-06T07:45:46;3.30;99.90
14934;DHT22;7560;51.364;12.384;2024-01-06T07:50:48;3.40;99.90
14934;DHT22;7560;51.364;12.384;2024-01-06T07:55:50;3.60;99.90
14934;DHT22;7560;51.364;12.384;2024-01-06T08:00:52;3.80;99.90
14934;DHT22;7560;51.364;12.384;2024-01-06T08:05:54;4.00;99.90
14934;DHT22;7560;51.364;12.384;2024-01-06T08:10:56;4.10;99.90
14934;DHT22;7560;51.364;12.384;2024-01-06T08:15:58;4.30;99.90
14934;DHT22;7560;51.364;12.384;2024-01-06T08:21:00;4.30;99.90
14934;DHT22;7560;51.364;12.384;2024-01-06T08:26:03;4.50;99.90
14934;DHT22;7560;51.364;12.384;2024-01-06T08:31:05;4.40;99.90
14934;DHT22;7560;51.364;12.384;2024-01-06T08:36:07;4.40;99.90
14934;DHT22;7560;51.364;12.384;2024-01-06T08:41:09;4.60;99.90
14934;DHT22;7560;51.364;12.384;2024-01-06T08:46:11;4.60;99.90
14934;DHT22;7560;51.364;12.384;2024-01-06T08:51:13;4.60;99.90
14934;DHT22;7560;51.364;12.384;2024-01-06T08:56:15;4.70;99.90
14934;DHT22;7560;51.364;12.384;2024-01-06T09:01:19;4.80;99.90
14934;DHT22;7560;51.364;12.384;2024-01-06T09:06:21;4.80;99.90
14934;DHT22;7560;51.364;12.384;2024-01-06T09:11:23;4.80;99.90
14934;DHT22;7560;51.364;12.384;2024-01-06T09:16:24;4.90;99.90
14934;DHT22;7560;51.364;12.384;2024-01-06T09:21:26;4.80;99.90
14934;DHT22;7560;51.364;12.384;2024-01-06T09:26:28;4.70;99.90
14934;DHT22;7560;51.364;12.384;2024-01-06T09:31:30;4.40;99.90
14934;DHT22;7560;51.364;12.384;2024-01-06T09:36:32;4.40;99.90
14934;DHT22;7560;51.364;12.384;2024-01-06T09:41:34;4.40;99.90
14934;DHT22;7560;51.364;12.384;2024-01-06T09:46:38;4.40;99.90
14934;DHT22;7560;51.364;12.384;2024-01-06T09:51:42;4.50;99.90
14934;DHT22;7560;51.364;12.384;2024-01-06T09:56:45;4.40;99.90
14934;DHT22;7560;51.364;12.384;2024-01-06T10:01:47;4.50;99.90
14934;DHT22;7560;51.364;12.384;2024-01-06T10:06:51;4.60;99.90
14934;DHT22;7560;51.364;12.384;2024-01-06T10:11:55;4.70;99.90
14934;DHT22;7560;51.364;12.384;2024-01-06T10:16:58;4.70;99.90
14934;DHT22;7560;51.364;12.384;2024-01-06T10:22:00;4.90;99.90
14934;DHT22;7560;51.364;12.384;2024-01-06T10:27:04;4.80;99.90
14934;DHT22;7560;51.364;12.384;2024-01-06T10:32:06;5.00;99.90
14934;DHT22;7560;51.364;12.384;2024-01-06T10:37:08;4.90;99.90
14934;DHT22;7560;51.364;12.384;2024-01-06T10:42:10;5.00;99.90
14934;DHT22;7560;51.364;12.384;2024-01-06T10:47:15;5.30;99.90
14934;DHT22;7560;51.364;12.384;2024-01-06T10:52:18;5.30;99.90
14934;DHT22;7560;51.364;12.384;2024-01-06T10:57:21;5.20;99.90
14934;DHT22;7560;51.364;12.384;2024-01-06T11:02:23;5.10;99.90
14934;DHT22;7560;51.364;12.384;2024-01-06T11:07:27;5.20;99.90
14934;DHT22;7560;51.364;12.384;2024-01-06T11:12:30;5.20;99.90
14934;DHT22;7560;51.364;12.384;2024-01-06T11:17:54;5.40;99.90
14934;DHT22;7560;51.364;12.384;2024-01-06T11:23:17;5.30;99.90
14934;DHT22;7560;51.364;12.384;2024-01-06T11:28:19;5.60;99.90
14934;DHT22;7560;51.364;12.384;2024-01-06T11:33:21;5.50;99.90
14934;DHT22;7560;51.364;12.384;2024-01-06T11:38:23;5.70;99.90
14934;DHT22;7560;51.364;12.384;2024-01-06T11:43:27;5.90;99.90
14934;DHT22;7560;51.364;12.384;2024-01-06T11:48:29;6.20;99.90
14934;DHT22;7560;51.364;12.384;2024-01-06T11:53:33;6.20;99.90
14934;DHT22;7560;51.364;12.384;2024-01-06T11:58:38;6.10;99.90
14934;DHT22;7560;51.364;12.384;2024-01-06T12:03:40;6.10;99.90
14934;DHT22;7560;51.364;12.384;2024-01-06T12:08:42;5.70;99.90
14934;DHT22;7560;51.364;12.384;2024-01-06T12:13:44;5.60;99.90
14934;DHT22;7560;51.364;12.384;2024-01-06T12:18:47;5.70;99.90
14934;DHT22;7560;51.364;12.384;2024-01-06T12:23:49;5.80;99.90
14934;DHT22;7560;51.364;12.384;2024-01-06T12:28:51;5.80;99.90
14934;DHT22;7560;51.364;12.384;2024-01-06T12:33:54;5.60;99.90
14934;DHT22;7560;51.364;12.384;2024-01-06T12:38:57;5.60;99.90
14934;DHT22;7560;51.364;12.384;2024-01-06T12:44:00;5.20;99.90
14934;DHT22;7560;51.364;12.384;2024-01-06T12:49:02;5.20;99.90
14934;DHT22;7560;51.364;12.384;2024-01-06T12:54:04;5.10;99.90
14934;DHT22;7560;51.364;12.384;2024-01-06T12:59:06;4.80;99.90
14934;DHT22;7560;51.364;12.384;2024-01-06T13:04:09;4.70;99.90
14934;DHT22;7560;51.364;12.384;2024-01-06T13:09:11;4.50;99.90
14934;DHT22;7560;51.364;12.384;2024-01-06T13:14:18;4.40;99.90
14934;DHT22;7560;51.364;12.384;2024-01-06T13:19:19;4.40;99.90
14934;DHT22;7560;51.364;12.384;2024-01-06T13:24:22;4.30;99.90
14934;DHT22;7560;51.364;12.384;2024-01-06T13:29:24;4.50;99.90
14934;DHT22;7560;51.364;12.384;2024-01-06T13:34:26;4.30;99.90
14934;DHT22;7560;51.364;12.384;2024-01-06T13:39:28;4.50;99.90
14934;DHT22;7560;51.364;12.384;2024-01-06T13:44:30;4.40;99.90
14934;DHT22;7560;51.364;12.384;2024-01-06T13:49:32;4.30;99.90
14934;DHT22;7560;51.364;12.384;2024-01-06T13:54:35;4.40;99.90
14934;DHT22;7560;51.364;12.384;2024-01-06T13:59:37;4.30;99.90
14934;DHT22;7560;51.364;12.384;2024-01-06T14:04:43;4.30;99.90
14934;DHT22;7560;51.364;12.384;2024-01-06T14:09:46;4.30;99.90
14934;DHT22;7560;51.364;12.384;2024-01-06T14:14:48;4.10;99.90
14934;DHT22;7560;51.364;12.384;2024-01-06T14:19:50;4.10;99.90
14934;DHT22;7560;51.364;12.384;2024-01-06T14:24:52;4.20;99.90
14934;DHT22;7560;51.364;12.384;2024-01-06T14:29:54;4.00;99.90
14934;DHT22;7560;51.364;12.384;2024-01-06T14:34:56;4.00;99.90
14934;DHT22;7560;51.364;12.384;2024-01-06T14:39:58;3.90;99.90
14934;DHT22;7560;51.364;12.384;2024-01-06T14:45:00;4.10;99.90
14934;DHT22;7560;51.364;12.384;2024-01-06T14:50:02;3.90;99.90
14934;DHT22;7560;51.364;12.384;2024-01-06T14:55:05;3.80;99.90
14934;DHT22;7560;51.364;12.384;2024-01-06T15:00:07;3.80;99.90
14934;DHT22;7560;51.364;12.384;2024-01-06T15:05:12;3.70;99.90
14934;DHT22;7560;51.364;12.384;2024-01-06T15:10:15;3.90;99.90
14934;DHT22;7560;51.364;12.384;2024-01-06T15:15:17;4.00;99.90
14934;DHT22;7560;51.364;12.384;2024-01-06T15:20:19;3.70;99.90
14934;DHT22;7560;51.364;12.384;2024-01-06T15:25:21;3.60;99.90
14934;DHT22;7560;51.364;12.384;2024-01-06T15:30:22;3.70;99.90
14934;DHT22;7560;51.364;12.384;2024-01-06T15:35:25;3.70;99.90
14934;DHT22;7560;51.364;12.384;2024-01-06T15:40:27;3.70;99.90
14934;DHT22;7560;51.364;12.384;2024-01-06T15:45:29;3.60;99.90
14934;DHT22;7560;51.364;12.384;2024-01-06T15:50:31;3.60;99.90
14934;DHT22;7560;51.364;12.384;2024-01-06T15:55:32;3.50;99.90
14934;DHT22;7560;51.364;12.384;2024-01-06T16:00:34;3.50;99.90
14934;DHT22;7560;51.364;12.384;2024-01-06T16:05:38;3.40;99.90
14934;DHT22;7560;51.364;12.384;2024-01-06T16:10:40;3.50;99.90
14934;DHT22;7560;51.364;12.384;2024-01-06T16:15:42;3.30;99.90
14934;DHT22;7560;51.364;12.384;2024-01-06T16:20:44;3.40;99.90
14934;DHT22;7560;51.364;12.384;2024-01-06T16:25:47;3.40;99.90
14934;DHT22;7560;51.364;12.384;2024-01-06T16:30:49;3.20;99.90
14934;DHT22;7560;51.364;12.384;2024-01-06T16:35:51;3.30;99.90
14934;DHT22;7560;51.364;12.384;2024-01-06T16:40:53;3.20;99.90
14934;DHT22;7560;51.364;12.384;2024-01-06T16:45:54;3.20;99.90
14934;DHT22;7560;51.364;12.384;2024-01-06T16:50:56;3.10;99.90
14934;DHT22;7560;51.364;12.384;2024-01-06T16:55:58;3.00;99.90
14934;DHT22;7560;51.364;12.384;2024-01-06T17:01:00;3.00;99.90
14934;DHT22;7560;51.364;12.384;2024-01-06T17:06:02;3.00;99.90
14934;DHT22;7560;51.364;12.384;2024-01-06T17:11:04;3.10;99.90
14934;DHT22;7560;51.364;12.384;2024-01-06T17:16:06;3.00;99.90
14934;DHT22;7560;51.364;12.384;2024-01-06T17:21:08;3.00;99.90
14934;DHT22;7560;51.364;12.384;2024-01-06T17:26:11;3.10;99.90
14934;DHT22;7560;51.364;12.384;2024-01-06T17:31:13;3.00;99.90
14934;DHT22;7560;51.364;12.384;2024-01-06T17:36:15;3.00;99.90
14934;DHT22;7560;51.364;12.384;2024-01-06T17:41:18;3.00;99.90
14934;DHT22;7560;51.364;12.384;2024-01-06T17:46:20;2.90;99.90
14934;DHT22;7560;51.364;12.384;2024-01-06T17:51:23;2.90;99.90
14934;DHT22;7560;51.364;12.384;2024-01-06T17:56:29;2.80;99.90
14934;DHT22;7560;51.364;12.384;2024-01-06T18:01:31;3.00;99.90
14934;DHT22;7560;51.364;12.384;2024-01-06T18:06:33;3.00;99.90
14934;DHT22;7560;51.364;12.384;2024-01-06T18:11:35;3.10;99.90
14934;DHT22;7560;51.364;12.384;2024-01-06T18:16:40;3.30;99.90
14934;DHT22;7560;51.364;12.384;2024-01-06T18:21:42;3.00;99.90
14934;DHT22;7560;51.364;12.384;2024-01-06T18:26:44;2.90;99.90
14934;DHT22;7560;51.364;12.384;2024-01-06T18:31:46;3.00;99.90
14934;DHT22;7560;51.364;12.384;2024-01-06T18:36:47;3.00;99.90
14934;DHT22;7560;51.364;12.384;2024-01-06T18:41:50;2.90;99.90
14934;DHT22;7560;51.364;12.384;2024-01-06T18:46:52;2.90;99.90
14934;DHT22;7560;51.364;12.384;2024-01-06T18:51:53;3.00;99.90
14934;DHT22;7560;51.364;12.384;2024-01-06T18:56:55;2.90;99.90
14934;DHT22;7560;51.364;12.384;2024-01-06T19:01:57;2.80;99.90
14934;DHT22;7560;51.364;12.384;2024-01-06T19:06:59;2.70;99.90
14934;DHT22;7560;51.364;12.384;2024-01-06T19:12:01;2.80;99.90
14934;DHT22;7560;51.364;12.384;2024-01-06T19:17:04;2.70;99.90
14934;DHT22;7560;51.364;12.384;2024-01-06T19:22:06;2.70;99.90
14934;DHT22;7560;51.364;12.384;2024-01-06T19:27:08;2.80;99.90
14934;DHT22;7560;51.364;12.384;2024-01-06T19:32:10;2.70;99.90
14934;DHT22;7560;51.364;12.384;2024-01-06T19:37:12;2.70;99.90
14934;DHT22;7560;51.364;12.384;2024-01-06T19:42:14;2.60;99.90
14934;DHT22;7560;51.364;12.384;2024-01-06T19:47:16;2.60;99.90
14934;DHT22;7560;51.364;12.384;2024-01-06T19:52:18;2.60;99.90
14934;DHT22;7560;51.364;12.384;2024-01-06T19:57:20;2.60;99.90
14934;DHT22;7560;51.364;12.384;2024-01-06T20:02:22;2.30;99.90
14934;DHT22;7560;51.364;12.384;2024-01-06T20:07:24;2.30;99.90
14934;DHT22;7560;51.364;12.384;2024-01-06T20:12:30;2.10;99.90
14934;DHT22;7560;51.364;12.384;2024-01-06T20:17:32;2.20;99.90
14934;DHT22;7560;51.364;12.384;2024-01-06T20:22:34;2.20;99.90
14934;DHT22;7560;51.364;12.384;2024-01-06T20:27:36;2.20;99.90
14934;DHT22;7560;51.364;12.384;2024-01-06T20:32:38;2.20;99.90
14934;DHT22;7560;51.364;12.384;2024-01-06T20:37:42;2.10;99.90
14934;DHT22;7560;51.364;12.384;2024-01-06T20:42:44;2.20;99.90
14934;DHT22;7560;51.364;12.384;2024-01-06T20:47:45;2.10;99.90
14934;DHT22;7560;51.364;12.384;2024-01-06T20:52:47;2.10;99.90
14934;DHT22;7560;51.364;12.384;2024-01-06T20:57:49;2.00;99.90
14934;DHT22;7560;51.364;12.384;2024-01-06T21:02:51;2.00;99.90
14934;DHT22;7560;51.364;12.384;2024-01-06T21:07:53;2.00;99.90
14934;DHT22;7560;51.364;12.384;2024-01-06T21:12:55;2.10;99.90
14934;DHT22;7560;51.364;12.384;2024-01-06T21:17:57;2.00;99.90
14934;DHT22;7560;51.364;12.384;2024-01-06T21:22:59;1.90;99.90
14934;DHT22;7560;51.364;12.384;2024-01-06T21:28:01;2.00;99.90
14934;DHT22;7560;51.364;12.384;2024-01-06T21:33:03;2.00;99.90
14934;DHT22;7560;51.364;12.384;2024-01-06T21:38:05;1.90;99.90
14934;DHT22;7560;51.364;12.384;2024-01-06T21:43:13;2.00;99.90
14934;DHT22;7560;51.364;12.384;2024-01-06T21:48:15;2.00;99.90
14934;DHT22;7560;51.364;12.384;2024-01-06T21:53:17;1.90;99.90
14934;DHT22;7560;51.364;12.384;2024-01-06T21:58:19;1.70;99.90
14934;DHT22;7560;51.364;12.384;2024-01-06T22:03:21;1.70;99.90
14934;DHT22;7560;51.364;12.384;2024-01-06T22:08:22;1.60;99.90
14934;DHT22;7560;51.364;12.384;2024-01-06T22:13:24;1.60;99.90
14934;DHT22;7560;51.364;12.384;2024-01-06T22:18:26;1.70;99.90
14934;DHT22;7560;51.364;12.384;2024-01-06T22:23:28;1.60;99.90
14934;DHT22;7560;51.364;12.384;2024-01-06T22:28:30;1.60;99.90
14934;DHT22;7560;51.364;12.384;2024-01-06T22:33:32;1.70;99.90
14934;DHT22;7560;51.364;12.384;2024-01-06T22:38:34;1.50;99.90
14934;DHT22;7560;51.364;12.384;2024-01-06T22:43:52;1.50;99.90
14934;DHT22;7560;51.364;12.384;2024-01-06T22:48:54;1.50;99.90
14934;DHT22;7560;51.364;12.384;2024-01-06T22:53:56;1.50;99.90
14934;DHT22;7560;51.364;12.384;2024-01-06T22:58:58;1.40;99.90
14934;DHT22;7560;51.364;12.384;2024-01-06T23:04:01;1.30;99.90
14934;DHT22;7560;51.364;12.384;2024-01-06T23:09:03;1.30;99.90
14934;DHT22;7560;51.364;12.384;2024-01-06T23:14:06;1.50;99.90
14934;DHT22;7560;51.364;12.384;2024-01-06T23:19:07;1.50;99.90
14934;DHT22;7560;51.364;12.384;2024-01-06T23:24:09;1.40;99.90
14934;DHT22;7560;51.364;12.384;2024-01-06T23:29:11;1.30;99.90
14934;DHT22;7560;51.364;12.384;2024-01-06T23:34:13;1.30;99.90
14934;DHT22;7560;51.364;12.384;2024-01-06T23:39:30;1.40;99.90
14934;DHT22;7560;51.364;12.384;2024-01-06T23:44:32;1.30;99.90
14934;DHT22;7560;51.364;12.384;2024-01-06T23:49:34;1.30;99.90
14934;DHT22;7560;51.364;12.384;2024-01-06T23:54:40;1.20;99.90
14934;DHT22;7560;51.364;12.384;2024-01-06T23:59:42;1.40;99.90
